| time (UTC) | temp F | wind direction | speed MPH | gust MPH | rain 1hr in | rain 24hr in | rain mn in | humidity % | barometer mb |
| 20260502201210 | 62 | 68 | 0.0 | 0.0 | 0.12 | 0.12 | 0.12 | 88 | 1012.3 |
| 20260502200702 | 62 | 68 | 0.0 | 0.0 | 0.12 | 0.12 | 0.12 | 88 | 1012.3 |
| 20260502200152 | 62 | 68 | 0.0 | 0.0 | 0.12 | 0.12 | 0.12 | 87 | 1012.2 |
| 20260502195646 | 62 | 43 | 0.0 | 0.0 | 0.12 | 0.12 | 0.12 | 87 | 1012.1 |
| 20260502195135 | 62 | 43 | 0.0 | 0.0 | 0.11 | 0.11 | 0.11 | 86 | 1012.2 |
| 20260502194727 | 62 | 43 | 0.0 | 0.0 | 0.11 | 0.11 | 0.11 | 85 | 1012.4 |
| 20260502194231 | 63 | 43 | 0.0 | 0.0 | 0.10 | 0.10 | 0.10 | 84 | 1012.6 |
| 20260502193720 | 63 | 272 | 0.0 | 0.0 | 0.09 | 0.09 | 0.09 | 83 | 1012.7 |
| 20260502193158 | 64 | 272 | 2.0 | 8.0 | 0.07 | 0.07 | 0.08 | 81 | 1012.8 |
| 20260502192647 | 65 | 272 | 4.0 | 11.0 | 0.06 | 0.06 | 0.06 | 79 | 1012.9 |
| 20260502192137 | 66 | 236 | 5.0 | 11.0 | 0.03 | 0.03 | 0.03 | 76 | 1013.0 |
| 20260502191632 | 67 | 163 | 4.0 | 9.0 | 0.00 | 0.00 | 0.00 | 69 | 1012.9 |
| 20260502191226 | 67 | 233 | 5.0 | 9.0 | 0.00 | 0.00 | 0.00 | 69 | 1012.8 |
| 20260502190717 | 67 | 172 | 5.0 | 11.0 | 0.00 | 0.00 | 0.00 | 68 | 1012.6 |
| 20260502190508 | 67 | 159 | 5.0 | 12.0 | 0.00 | 0.00 | 0.00 | 68 | 1012.6 |
| 20260502185958 | 67 | 158 | 6.0 | 12.0 | 0.00 | 0.00 | 0.00 | 68 | 1012.6 |
| 20260502185147 | 68 | 124 | 6.0 | 12.0 | 0.00 | 0.00 | 0.00 | 67 | 1012.6 |
| 20260502184734 | 69 | 145 | 7.0 | 14.0 | 0.00 | 0.00 | 0.00 | 65 | 1012.6 |
| 20260502184227 | 69 | 135 | 6.0 | 14.0 | 0.00 | 0.00 | 0.00 | 64 | 1012.6 |
| 20260502183819 | 70 | 116 | 5.0 | 11.0 | 0.00 | 0.00 | 0.00 | 64 | 1012.7 |
| 20260502183312 | 70 | 140 | 8.0 | 16.0 | 0.00 | 0.00 | 0.00 | 66 | 1012.7 |
| 20260502183112 | 71 | 101 | 8.0 | 18.0 | 0.00 | 0.00 | 0.00 | 66 | 1012.7 |
| 20260502182251 | 73 | 189 | 6.0 | 18.0 | 0.00 | 0.00 | 0.00 | 64 | 1012.7 |
| 20260502181743 | 74 | 125 | 3.0 | 13.0 | 0.00 | 0.00 | 0.00 | 62 | 1012.6 |
| 20260502181235 | 74 | 108 | 0.0 | 6.0 | 0.00 | 0.00 | 0.00 | 55 | 1012.5 |
| 20260502180727 | 74 | 262 | 0.0 | 1.0 | 0.00 | 0.00 | 0.00 | 55 | 1012.3 |
| 20260502180314 | 75 | 262 | 0.0 | 1.0 | 0.00 | 0.00 | 0.00 | 54 | 1012.3 |
| 20260502170226 | 76 | 256 | 2.0 | 6.0 | 0.00 | 0.00 | 0.00 | 53 | 1012.3 |
| 20260502164250 | 77 | 204 | 3.0 | 6.0 | 0.00 | 0.00 | 0.00 | 52 | 1012.6 |
| 20260502163741 | 77 | 168 | 2.0 | 6.0 | 0.00 | 0.00 | 0.00 | 52 | 1012.7 |
| 20260502163234 | 77 | 253 | 3.0 | 9.0 | 0.00 | 0.00 | 0.00 | 51 | 1012.7 |
| 20260502162830 | 78 | 192 | 2.0 | 8.0 | 0.00 | 0.00 | 0.00 | 51 | 1012.9 |
| 20260502162728 | 78 | 264 | 3.0 | 9.0 | 0.00 | 0.00 | 0.00 | 50 | 1012.8 |
| 20260502161807 | 77 | 272 | 2.0 | 8.0 | 0.00 | 0.00 | 0.00 | 51 | 1013.0 |
| 20260502161300 | 77 | 193 | 2.0 | 5.0 | 0.00 | 0.00 | 0.00 | 51 | 1013.1 |
| 20260502160759 | 78 | 183 | 4.0 | 10.0 | 0.00 | 0.00 | 0.00 | 51 | 1013.2 |
| 20260502160752 | 78 | 214 | 3.0 | 7.0 | 0.00 | 0.00 | 0.00 | 51 | 1013.2 |
| 20260502160448 | 78 | 195 | 4.0 | 10.0 | 0.00 | 0.00 | 0.00 | 50 | 1013.2 |
| 20260502152239 | 78 | 147 | 5.0 | 12.0 | 0.00 | 0.00 | 0.00 | 50 | 1013.7 |
| 20260502151943 | 78 | 166 | 4.0 | 10.0 | 0.00 | 0.00 | 0.00 | 50 | 1013.8 |
| 20260502151741 | 78 | 193 | 5.0 | 10.0 | 0.00 | 0.00 | 0.00 | 50 | 1013.8 |
| 20260502150712 | 77 | 212 | 3.0 | 7.0 | 0.00 | 0.00 | 0.00 | 52 | 1014.0 |
| 20260502150205 | 78 | 235 | 3.0 | 7.0 | 0.00 | 0.00 | 0.00 | 51 | 1014.1 |
| 20260502130643 | 74 | 193 | 4.0 | 9.0 | 0.00 | 0.00 | 0.00 | 58 | 1015.5 |
| 20260502130134 | 74 | 236 | 4.0 | 9.0 | 0.00 | 0.00 | 0.00 | 59 | 1015.5 |
| 20260502123647 | 73 | 175 | 5.0 | 10.0 | 0.00 | 0.00 | 0.00 | 58 | 1015.7 |
| 20260502123139 | 74 | 186 | 6.0 | 12.0 | 0.00 | 0.00 | 0.00 | 58 | 1015.9 |
| 20260502122628 | 74 | 203 | 6.0 | 14.0 | 0.00 | 0.00 | 0.00 | 58 | 1016.0 |
| 20260502122118 | 74 | 193 | 5.0 | 14.0 | 0.00 | 0.00 | 0.00 | 58 | 1016.0 |
| 20260502121616 | 75 | 189 | 6.0 | 12.0 | 0.00 | 0.00 | 0.00 | 57 | 1016.0 |
| 20260502121207 | 75 | 181 | 6.0 | 12.0 | 0.00 | 0.00 | 0.00 | 57 | 1016.0 |
| 20260502120656 | 75 | 199 | 6.0 | 11.0 | 0.00 | 0.00 | 0.00 | 57 | 1016.0 |
| 20260502120651 | 76 | 159 | 6.0 | 11.0 | 0.00 | 0.00 | 0.00 | 56 | 1016.0 |
| 20260502115631 | 76 | 206 | 7.0 | 13.0 | 0.00 | 0.00 | 0.00 | 56 | 1016.1 |
| 20260502115137 | 75 | 154 | 6.0 | 14.0 | 0.00 | 0.00 | 0.00 | 56 | 1016.1 |
| 20260502114615 | 75 | 156 | 5.0 | 14.0 | 0.00 | 0.00 | 0.00 | 58 | 1016.1 |
| 20260502114112 | 75 | 263 | 5.0 | 9.0 | 0.00 | 0.00 | 0.00 | 56 | 1016.2 |
| 20260502113708 | 75 | 178 | 4.0 | 9.0 | 0.00 | 0.00 | 0.00 | 57 | 1016.2 |
| 20260502113159 | 75 | 171 | 4.0 | 7.0 | 0.00 | 0.00 | 0.00 | 56 | 1016.2 |
| 20260502112649 | 75 | 163 | 4.0 | 10.0 | 0.00 | 0.00 | 0.00 | 56 | 1016.3 |
| 20260502112132 | 75 | 163 | 4.0 | 10.0 | 0.00 | 0.00 | 0.00 | 56 | 1016.4 |
| 20260502111628 | 75 | 211 | 3.0 | 9.0 | 0.00 | 0.00 | 0.00 | 57 | 1016.4 |
| 20260502111622 | 75 | 163 | 2.0 | 7.0 | 0.00 | 0.00 | 0.00 | 57 | 1016.3 |
| 20260502110610 | 75 | 216 | 4.0 | 9.0 | 0.00 | 0.00 | 0.00 | 57 | 1016.5 |
| 20260502110603 | 74 | 192 | 5.0 | 10.0 | 0.00 | 0.00 | 0.00 | 58 | 1016.5 |
| 20260502110300 | 75 | 187 | 4.0 | 9.0 | 0.00 | 0.00 | 0.00 | 58 | 1016.5 |
| 20260502105152 | 74 | 197 | 5.0 | 10.0 | 0.00 | 0.00 | 0.00 | 59 | 1016.6 |
| 20260502104645 | 74 | 176 | 4.0 | 9.0 | 0.00 | 0.00 | 0.00 | 58 | 1016.6 |
| 20260502104136 | 74 | 183 | 4.0 | 7.0 | 0.00 | 0.00 | 0.00 | 58 | 1016.7 |
| 20260502103622 | 74 | 201 | 3.0 | 7.0 | 0.00 | 0.00 | 0.00 | 58 | 1016.7 |
| 20260502103117 | 74 | 102 | 4.0 | 11.0 | 0.00 | 0.00 | 0.00 | 58 | 1016.7 |
| 20260502102606 | 74 | 174 | 5.0 | 11.0 | 0.00 | 0.00 | 0.00 | 59 | 1016.9 |
| 20260502102102 | 73 | 176 | 4.0 | 8.0 | 0.00 | 0.00 | 0.00 | 60 | 1016.9 |
| 20260502101602 | 73 | 190 | 3.0 | 8.0 | 0.00 | 0.00 | 0.00 | 60 | 1016.9 |
| 20260502101149 | 73 | 219 | 4.0 | 8.0 | 0.00 | 0.00 | 0.00 | 60 | 1017.0 |
| 20260502100643 | 72 | 213 | 4.0 | 8.0 | 0.00 | 0.00 | 0.00 | 59 | 1017.1 |
| 20260502100530 | 72 | 210 | 3.0 | 7.0 | 0.00 | 0.00 | 0.00 | 61 | 1017.0 |
| 20260502091107 | 70 | 180 | 4.0 | 9.0 | 0.00 | 0.00 | 0.00 | 62 | 1017.4 |
| 20260502090559 | 70 | 170 | 3.0 | 8.0 | 0.00 | 0.00 | 0.00 | 61 | 1017.4 |
| 20260502090205 | 69 | 196 | 3.0 | 8.0 | 0.00 | 0.00 | 0.00 | 61 | 1017.5 |
| 20260502071055 | 63 | 199 | 4.0 | 11.0 | 0.00 | 0.00 | 0.00 | 64 | 1017.9 |
| 20260502070545 | 62 | 201 | 4.0 | 11.0 | 0.00 | 0.00 | 0.00 | 64 | 1017.9 |
| 20260502070146 | 62 | 166 | 3.0 | 7.0 | 0.00 | 0.00 | 0.00 | 65 | 1017.9 |
| 20260502065623 | 61 | 195 | 2.0 | 5.0 | 0.00 | 0.00 | 0.00 | 66 | 1017.9 |
| 20260502065117 | 60 | 195 | 2.0 | 5.0 | 0.00 | 0.00 | 0.00 | 66 | 1018.0 |
| 20260502064607 | 60 | 203 | 3.0 | 5.0 | 0.00 | 0.00 | 0.00 | 65 | 1017.9 |
| 20260502064059 | 60 | 195 | 3.0 | 5.0 | 0.00 | 0.00 | 0.00 | 65 | 1017.9 |
| 20260502063552 | 59 | 176 | 3.0 | 5.0 | 0.00 | 0.00 | 0.00 | 65 | 1017.8 |
| 20260502063044 | 58 | 162 | 2.0 | 5.0 | 0.00 | 0.00 | 0.00 | 64 | 1017.8 |
| 20260502062550 | 57 | 194 | 1.0 | 4.0 | 0.00 | 0.00 | 0.00 | 65 | 1017.7 |
| 20260502062028 | 57 | 148 | 1.0 | 3.0 | 0.00 | 0.00 | 0.00 | 65 | 1017.7 |
| 20260502061619 | 57 | 156 | 1.0 | 4.0 | 0.00 | 0.00 | 0.00 | 64 | 1017.8 |
| 20260502061116 | 56 | 184 | 2.0 | 6.0 | 0.00 | 0.00 | 0.00 | 64 | 1017.9 |
| 20260502060912 | 56 | 170 | 2.0 | 6.0 | 0.00 | 0.00 | 0.00 | 65 | 1017.9 |
| 20260502060105 | 56 | 149 | 2.0 | 6.0 | 0.00 | 0.00 | 0.00 | 64 | 1017.9 |
| 20260502055551 | 56 | 178 | 2.0 | 6.0 | 0.00 | 0.00 | 0.00 | 64 | 1017.9 |
| 20260502055441 | 56 | 185 | 2.0 | 4.0 | 0.00 | 0.00 | 0.00 | 64 | 1017.8 |
| 20260502054535 | 56 | 155 | 2.0 | 5.0 | 0.00 | 0.00 | 0.00 | 63 | 1017.9 |
| 20260502054427 | 56 | 170 | 1.0 | 5.0 | 0.00 | 0.00 | 0.00 | 63 | 1017.8 |
| 20260502053521 | 56 | 158 | 0.0 | 0.0 | 0.00 | 0.00 | 0.00 | 65 | 1017.7 |
| 20260502053016 | 56 | 158 | 0.0 | 0.0 | 0.00 | 0.00 | 0.00 | 64 | 1017.6 |
| 20260502052612 | 55 | 158 | 0.0 | 2.0 | 0.00 | 0.00 | 0.00 | 63 | 1017.7 |
| 20260502052100 | 55 | 158 | 1.0 | 3.0 | 0.00 | 0.00 | 0.00 | 63 | 1017.6 |
| 20260502051554 | 55 | 164 | 1.0 | 4.0 | 0.00 | 0.00 | 0.00 | 63 | 1017.5 |
| 20260502051044 | 54 | 168 | 1.0 | 4.0 | 0.00 | 0.00 | 0.00 | 63 | 1017.6 |
| 20260502050536 | 54 | 150 | 1.0 | 4.0 | 0.00 | 0.00 | 0.00 | 63 | 1017.7 |
| 20260502050030 | 53 | 168 | 1.0 | 5.0 | 0.00 | 0.00 | 0.00 | 64 | 1017.6 |
| 20260502045521 | 53 | 141 | 1.0 | 5.0 | 0.00 | 0.00 | 0.00 | 64 | 1017.5 |
| 20260502045012 | 53 | 137 | 1.0 | 3.0 | 0.00 | 0.00 | 0.00 | 65 | 1017.5 |
| 20260502044503 | 52 | 158 | 2.0 | 3.0 | 0.00 | 0.00 | 0.00 | 65 | 1017.4 |
| 20260502044056 | 52 | 153 | 1.0 | 3.0 | 0.00 | 0.00 | 0.00 | 65 | 1017.4 |
| 20260502043548 | 51 | 136 | 0.0 | 3.0 | 0.00 | 0.00 | 0.00 | 66 | 1017.5 |
| 20260502043040 | 51 | 155 | 0.0 | 2.0 | 0.00 | 0.00 | 0.00 | 67 | 1017.5 |
| 20260502042834 | 51 | 143 | 0.0 | 3.0 | 0.00 | 0.00 | 0.00 | 67 | 1017.6 |
| 20260502042023 | 51 | 130 | 1.0 | 4.0 | 0.00 | 0.00 | 0.00 | 68 | 1017.5 |
| 20260502041517 | 51 | 139 | 1.0 | 4.0 | 0.00 | 0.00 | 0.00 | 68 | 1017.6 |
| 20260502041012 | 51 | 133 | 0.0 | 0.0 | 0.00 | 0.00 | 0.00 | 68 | 1017.6 |
| 20260502040518 | 51 | 183 | 0.0 | 0.0 | 0.00 | 0.00 | 0.00 | 68 | 1017.6 |
| 20260502035958 | 51 | 135 | 0.0 | 0.0 | 0.00 | 0.00 | 0.00 | 68 | 1017.6 |
| 20260502035851 | 51 | 124 | 0.0 | 2.0 | 0.00 | 0.00 | 0.00 | 68 | 1017.7 |
| 20260502035040 | 51 | 131 | 0.0 | 2.0 | 0.00 | 0.00 | 0.00 | 68 | 1017.8 |
| 20260502034826 | 51 | 131 | 0.0 | 0.0 | 0.00 | 0.00 | 0.00 | 67 | 1017.8 |
| 20260502034625 | 51 | 131 | 0.0 | 0.0 | 0.00 | 0.00 | 0.00 | 68 | 1017.7 |
| 20260502033915 | 51 | 131 | 0.0 | 0.0 | 0.00 | 0.00 | 0.00 | 67 | 1017.9 |
| 20260502033011 | 51 | 145 | 0.0 | 2.0 | 0.00 | 0.00 | 0.00 | 67 | 1017.9 |
| 20260502032859 | 51 | 145 | 1.0 | 3.0 | 0.00 | 0.00 | 0.00 | 67 | 1018.0 |
| 20260502031954 | 51 | 168 | 2.0 | 4.0 | 0.00 | 0.00 | 0.00 | 66 | 1017.9 |
| 20260502031548 | 52 | 140 | 2.0 | 4.0 | 0.00 | 0.00 | 0.00 | 66 | 1017.8 |
| 20260502031038 | 52 | 143 | 1.0 | 4.0 | 0.00 | 0.00 | 0.00 | 66 | 1017.9 |
| 20260502030533 | 52 | 140 | 1.0 | 4.0 | 0.00 | 0.00 | 0.00 | 65 | 1017.9 |
| 20260502030027 | 52 | 127 | 2.0 | 4.0 | 0.00 | 0.00 | 0.00 | 66 | 1017.9 |
| 20260502025520 | 52 | 157 | 2.0 | 4.0 | 0.00 | 0.00 | 0.00 | 65 | 1017.9 |
| 20260502025408 | 52 | 134 | 2.0 | 3.0 | 0.00 | 0.00 | 0.00 | 65 | 1017.9 |
| 20260502024504 | 52 | 139 | 1.0 | 4.0 | 0.00 | 0.00 | 0.00 | 65 | 1018.1 |
| 20260502023955 | 52 | 139 | 0.0 | 4.0 | 0.00 | 0.00 | 0.00 | 65 | 1018.1 |
| 20260502023452 | 52 | 150 | 0.0 | 0.0 | 0.00 | 0.00 | 0.00 | 65 | 1018.1 |
| 20260502023044 | 52 | 148 | 0.0 | 0.0 | 0.00 | 0.00 | 0.00 | 64 | 1018.1 |
| 20260502022539 | 53 | 148 | 0.0 | 0.0 | 0.00 | 0.00 | 0.00 | 64 | 1018.0 |
| 20260502022034 | 53 | 148 | 0.0 | 0.0 | 0.00 | 0.00 | 0.00 | 64 | 1018.1 |
| 20260502021821 | 53 | 145 | 1.0 | 3.0 | 0.00 | 0.00 | 0.00 | 63 | 1018.2 |
| 20260502021524 | 53 | 148 | 0.0 | 0.0 | 0.00 | 0.00 | 0.00 | 64 | 1018.2 |
| 20260502020515 | 53 | 141 | 1.0 | 3.0 | 0.00 | 0.00 | 0.00 | 63 | 1018.2 |
| 20260502020008 | 53 | 139 | 1.0 | 3.0 | 0.00 | 0.00 | 0.00 | 63 | 1018.3 |
| 20260502015502 | 53 | 145 | 1.0 | 3.0 | 0.00 | 0.00 | 0.00 | 63 | 1018.4 |
| 20260502014954 | 53 | 157 | 1.0 | 3.0 | 0.00 | 0.00 | 0.00 | 63 | 1018.4 |
| 20260502014447 | 53 | 131 | 1.0 | 3.0 | 0.00 | 0.00 | 0.00 | 63 | 1018.3 |
| 20260502013942 | 53 | 154 | 1.0 | 3.0 | 0.00 | 0.00 | 0.00 | 63 | 1018.4 |
| 20260502013743 | 53 | 135 | 0.0 | 0.0 | 0.00 | 0.00 | 0.00 | 62 | 1018.5 |
| 20260502013543 | 53 | 135 | 0.0 | 3.0 | 0.00 | 0.00 | 0.00 | 63 | 1018.5 |
| 20260502012522 | 53 | 145 | 0.0 | 0.0 | 0.00 | 0.00 | 0.00 | 62 | 1018.5 |
| 20260502012013 | 53 | 147 | 0.0 | 0.0 | 0.00 | 0.00 | 0.00 | 62 | 1018.6 |
| 20260502011504 | 53 | 131 | 0.0 | 0.0 | 0.00 | 0.00 | 0.00 | 62 | 1018.6 |
| 20260502011258 | 53 | 131 | 0.0 | 0.0 | 0.00 | 0.00 | 0.00 | 63 | 1018.6 |
| 20260502010452 | 53 | 131 | 0.0 | 0.0 | 0.00 | 0.00 | 0.00 | 63 | 1018.7 |
| 20260502005943 | 53 | 131 | 0.0 | 0.0 | 0.00 | 0.00 | 0.00 | 63 | 1018.7 |
| 20260502005435 | 53 | 131 | 0.0 | 0.0 | 0.00 | 0.00 | 0.00 | 64 | 1018.7 |
| 20260502005329 | 53 | 131 | 0.0 | 0.0 | 0.00 | 0.00 | 0.00 | 63 | 1018.8 |
| 20260502004518 | 53 | 131 | 0.0 | 0.0 | 0.00 | 0.00 | 0.00 | 63 | 1018.8 |
| 20260502004012 | 53 | 131 | 0.0 | 0.0 | 0.00 | 0.00 | 0.00 | 63 | 1018.8 |
| 20260502003503 | 54 | 131 | 0.0 | 0.0 | 0.00 | 0.00 | 0.00 | 63 | 1018.8 |
| 20260502002959 | 54 | 131 | 0.0 | 0.0 | 0.00 | 0.00 | 0.00 | 61 | 1018.9 |
| 20260502002450 | 55 | 131 | 0.0 | 0.0 | 0.00 | 0.00 | 0.00 | 61 | 1019.0 |
| 20260502001944 | 55 | 131 | 0.0 | 0.0 | 0.00 | 0.00 | 0.00 | 60 | 1019.0 |
| 20260502001703 | 55 | 131 | 0.0 | 0.0 | 0.00 | 0.00 | 0.00 | 59 | 1019.2 |
| 20260502001447 | 55 | 131 | 0.0 | 0.0 | 0.00 | 0.00 | 0.00 | 60 | 1019.0 |
| 20260502001240 | 55 | 131 | 0.0 | 0.0 | 0.00 | 0.00 | 0.00 | 60 | 1019.1 |
| 20260502000009 | 56 | 130 | 0.0 | 0.0 | 0.00 | 0.00 | 0.00 | 59 | 1019.2 |
| 20260501235459 | 56 | 151 | 0.0 | 0.0 | 0.00 | 0.00 | 0.00 | 59 | 1019.3 |
| 20260501234951 | 56 | 134 | 0.0 | 0.0 | 0.00 | 0.00 | 0.00 | 59 | 1019.3 |
| 20260501234445 | 56 | 134 | 0.0 | 0.0 | 0.00 | 0.00 | 0.00 | 59 | 1019.4 |
| 20260501233938 | 56 | 147 | 0.0 | 0.0 | 0.00 | 0.00 | 0.00 | 59 | 1019.4 |
| 20260501233430 | 56 | 149 | 0.0 | 0.0 | 0.00 | 0.00 | 0.00 | 59 | 1019.4 |
| 20260501232919 | 56 | 145 | 0.0 | 0.0 | 0.00 | 0.00 | 0.00 | 59 | 1019.4 |
| 20260501232516 | 56 | 144 | 0.0 | 0.0 | 0.00 | 0.00 | 0.00 | 59 | 1019.5 |
| 20260501232000 | 56 | 144 | 0.0 | 0.0 | 0.00 | 0.00 | 0.00 | 58 | 1019.6 |
| 20260501231450 | 56 | 144 | 0.0 | 0.0 | 0.00 | 0.00 | 0.00 | 58 | 1019.6 |
| 20260501231244 | 57 | 144 | 0.0 | 0.0 | 0.00 | 0.00 | 0.00 | 58 | 1019.6 |
| 20260501230436 | 57 | 144 | 0.0 | 0.0 | 0.00 | 0.00 | 0.00 | 58 | 1019.6 |
| 20260501230323 | 57 | 144 | 0.0 | 0.0 | 0.00 | 0.00 | 0.00 | 58 | 1019.6 |
| 20260501225419 | 57 | 144 | 0.0 | 0.0 | 0.00 | 0.00 | 0.00 | 58 | 1019.7 |
| 20260501225211 | 57 | 144 | 0.0 | 0.0 | 0.00 | 0.00 | 0.00 | 58 | 1019.7 |
| 20260501224408 | 57 | 144 | 0.0 | 0.0 | 0.00 | 0.00 | 0.00 | 58 | 1019.7 |
| 20260501224002 | 57 | 144 | 0.0 | 1.0 | 0.00 | 0.00 | 0.00 | 58 | 1019.7 |
| 20260501223456 | 58 | 144 | 0.0 | 3.0 | 0.00 | 0.00 | 0.00 | 58 | 1019.7 |
| 20260501222949 | 58 | 144 | 1.0 | 3.0 | 0.00 | 0.00 | 0.00 | 57 | 1019.7 |
| 20260501222746 | 58 | 153 | 1.0 | 2.0 | 0.00 | 0.00 | 0.00 | 57 | 1019.7 |
| 20260501221939 | 58 | 154 | 1.0 | 2.0 | 0.00 | 0.00 | 0.00 | 57 | 1019.8 |
| 20260501221437 | 58 | 154 | 1.0 | 2.0 | 0.00 | 0.00 | 0.00 | 57 | 1019.7 |
| 20260501220927 | 59 | 165 | 1.0 | 3.0 | 0.00 | 0.00 | 0.00 | 56 | 1019.7 |
| 20260501220421 | 59 | 118 | 2.0 | 5.0 | 0.00 | 0.00 | 0.00 | 56 | 1019.7 |
| 20260501215912 | 59 | 133 | 1.0 | 5.0 | 0.00 | 0.00 | 0.00 | 56 | 1019.7 |
| 20260501215404 | 59 | 106 | 1.0 | 4.0 | 0.00 | 0.00 | 0.00 | 56 | 1019.7 |
| 20260501215158 | 59 | 110 | 1.0 | 4.0 | 0.00 | 0.00 | 0.00 | 55 | 1019.7 |
| 20260501214450 | 59 | 118 | 1.0 | 4.0 | 0.00 | 0.00 | 0.00 | 56 | 1019.7 |
| 20260501213944 | 60 | 120 | 1.0 | 4.0 | 0.00 | 0.00 | 0.00 | 56 | 1019.7 |
| 20260501213434 | 60 | 126 | 1.0 | 4.0 | 0.00 | 0.00 | 0.00 | 54 | 1019.7 |
| 20260501212927 | 60 | 126 | 1.0 | 4.0 | 0.00 | 0.00 | 0.00 | 54 | 1019.6 |
| 20260501212616 | 61 | 113 | 2.0 | 3.0 | 0.00 | 0.00 | 0.00 | 52 | 1019.7 |
| 20260501212418 | 61 | 118 | 1.0 | 3.0 | 0.00 | 0.00 | 0.00 | 53 | 1019.7 |
| 20260501211405 | 61 | 140 | 1.0 | 4.0 | 0.00 | 0.00 | 0.00 | 52 | 1019.7 |
| 20260501210901 | 61 | 131 | 1.0 | 4.0 | 0.00 | 0.00 | 0.00 | 52 | 1019.7 |
| 20260501210654 | 62 | 136 | 2.0 | 4.0 | 0.00 | 0.00 | 0.00 | 52 | 1019.7 |
| 20260501205943 | 62 | 115 | 2.0 | 5.0 | 0.00 | 0.00 | 0.00 | 51 | 1019.6 |
| 20260501205635 | 62 | 131 | 2.0 | 4.0 | 0.00 | 0.00 | 0.00 | 51 | 1019.7 |
| 20260501205435 | 62 | 111 | 2.0 | 5.0 | 0.00 | 0.00 | 0.00 | 51 | 1019.7 |
| 20260501204422 | 62 | 121 | 1.0 | 4.0 | 0.00 | 0.00 | 0.00 | 51 | 1019.6 |
| 20260501204215 | 62 | 135 | 0.0 | 2.0 | 0.00 | 0.00 | 0.00 | 51 | 1019.7 |
| 20260501203408 | 62 | 124 | 0.0 | 0.0 | 0.00 | 0.00 | 0.00 | 50 | 1019.7 |
| 20260501202902 | 62 | 122 | 0.0 | 0.0 | 0.00 | 0.00 | 0.00 | 50 | 1019.7 |
| 20260501202354 | 63 | 133 | 0.0 | 0.0 | 0.00 | 0.00 | 0.00 | 50 | 1019.7 |
| 20260501201947 | 63 | 112 | 0.0 | 0.0 | 0.00 | 0.00 | 0.00 | 50 | 1019.7 |
| 20260501201439 | 64 | 119 | 0.0 | 0.0 | 0.00 | 0.00 | 0.00 | 48 | 1019.7 |
| 20260501201235 | 64 | 108 | 0.0 | 2.0 | 0.00 | 0.00 | 0.00 | 48 | 1019.7 |